Time;durP1;ratioP1;P1;durP2;ratioP2;P2;SDS_P1;SDS_P2;PMS_P1;PMS_P2;Temp;Humidity;BMP_temperature;BMP_pressure;BME280_temperature;BME280_humidity;BME280_pressure;Samples;Min_cycle;Max_cycle;Signal;HPM_P1;HPM_P2
2021/08/13 00:00:37;;;;;;;4.95;3.08;;;;;;;;;;4459158;32;20296;-55
2021/08/13 00:03:03;;;;;;;4.70;2.90;;;;;;;;;;4455145;32;20283;-55
2021/08/13 00:05:28;;;;;;;6.00;3.72;;;;;;;;;;4459051;32;20342;-55
2021/08/13 00:07:54;;;;;;;5.12;3.47;;;;;;;;;;4461553;32;20307;-55
2021/08/13 00:10:19;;;;;;;6.18;4.03;;;;;;;;;;4459197;32;20298;-55
2021/08/13 00:12:44;;;;;;;4.80;3.20;;;;;;;;;;4453581;32;20307;-55
2021/08/13 00:15:10;;;;;;;8.30;4.82;;;;;;;;;;4452967;32;20246;-55
2021/08/13 00:17:35;;;;;;;3.72;2.80;;;;;;;;;;4461105;32;20784;-57
2021/08/13 00:20:01;;;;;;;4.12;3.10;;;;;;;;;;4454816;32;20327;-55
2021/08/13 00:22:27;;;;;;;4.12;2.55;;;;;;;;;;4451468;32;20311;-56
2021/08/13 00:24:53;;;;;;;3.87;2.78;;;;;;;;;;4465478;32;20294;-55
2021/08/13 00:27:18;;;;;;;5.20;3.40;;;;;;;;;;4464447;32;20267;-56
2021/08/13 00:29:44;;;;;;;5.57;3.15;;;;;;;;;;4454871;32;20213;-55
2021/08/13 00:32:09;;;;;;;7.95;5.72;;;;;;;;;;4461417;32;20333;-55
2021/08/13 00:34:35;;;;;;;9.93;8.10;;;;;;;;;;4452436;32;20555;-55
2021/08/13 00:37:00;;;;;;;11.27;8.68;;;;;;;;;;4464498;32;20325;-57
2021/08/13 00:39:26;;;;;;;7.28;5.90;;;;;;;;;;4456617;32;20267;-55
2021/08/13 00:41:51;;;;;;;7.32;4.45;;;;;;;;;;4460343;32;20295;-55
2021/08/13 00:44:17;;;;;;;6.12;4.22;;;;;;;;;;4457882;32;20270;-55
2021/08/13 00:46:42;;;;;;;5.00;3.92;;;;;;;;;;4464839;32;20325;-55
2021/08/13 00:49:08;;;;;;;4.90;2.45;;;;;;;;;;4464667;32;20700;-55
2021/08/13 00:51:35;;;;;;;4.40;3.03;;;;;;;;;;4464704;32;20298;-54
2021/08/13 00:54:00;;;;;;;4.57;2.58;;;;;;;;;;4464615;32;20350;-55
2021/08/13 00:56:26;;;;;;;3.95;2.92;;;;;;;;;;4450519;32;20310;-55
2021/08/13 00:58:51;;;;;;;3.70;2.28;;;;;;;;;;4461998;32;20252;-55
2021/08/13 01:01:18;;;;;;;3.80;2.60;;;;;;;;;;4457809;32;20287;-55
2021/08/13 01:03:44;;;;;;;4.57;2.53;;;;;;;;;;4454012;32;20278;-55
2021/08/13 01:06:27;;;;;;;6.37;2.20;;;;;;;;;;4462712;32;20310;-55
2021/08/13 01:08:53;;;;;;;4.78;2.70;;;;;;;;;;4454173;32;20275;-55
2021/08/13 01:11:54;;;;;;;6.32;2.62;;;;;;;;;;4464481;32;20678;-56
2021/08/13 01:14:34;;;;;;;4.60;3.40;;;;;;;;;;4451570;32;20626;-55
2021/08/13 01:17:00;;;;;;;6.07;2.95;;;;;;;;;;4460190;32;20290;-55
2021/08/13 01:19:46;;;;;;;4.90;2.80;;;;;;;;;;4464371;32;20280;-55
2021/08/13 01:22:16;;;;;;;5.80;2.95;;;;;;;;;;4456938;32;20349;-55
2021/08/13 01:24:46;;;;;;;4.75;2.72;;;;;;;;;;4451969;32;20265;-54
2021/08/13 01:27:16;;;;;;;6.70;3.42;;;;;;;;;;4464028;32;20299;-54
2021/08/13 01:29:43;;;;;;;3.12;2.65;;;;;;;;;;4454256;32;20228;-55
2021/08/13 01:32:17;;;;;;;3.17;2.37;;;;;;;;;;4459997;32;20240;-55
2021/08/13 01:34:47;;;;;;;2.80;2.50;;;;;;;;;;4452334;32;20254;-55
2021/08/13 01:37:17;;;;;;;4.12;2.83;;;;;;;;;;4463829;32;20238;-56
2021/08/13 01:39:44;;;;;;;6.10;3.30;;;;;;;;;;4453788;32;20255;-55
2021/08/13 01:42:10;;;;;;;3.78;2.60;;;;;;;;;;4455354;32;20683;-56
2021/08/13 01:44:37;;;;;;;7.82;2.87;;;;;;;;;;4464092;32;20216;-55
2021/08/13 01:47:03;;;;;;;5.93;3.37;;;;;;;;;;4463164;32;20241;-56
2021/08/13 01:49:31;;;;;;;3.97;3.12;;;;;;;;;;4455485;32;20228;-54
2021/08/13 01:51:58;;;;;;;3.80;3.05;;;;;;;;;;4459056;32;20228;-54
2021/08/13 01:54:24;;;;;;;4.80;2.90;;;;;;;;;;4450983;32;20634;-54
2021/08/13 01:56:50;;;;;;;6.07;4.50;;;;;;;;;;4463331;32;20367;-55
2021/08/13 01:59:16;;;;;;;4.50;3.30;;;;;;;;;;4456399;32;20228;-55
2021/08/13 02:01:42;;;;;;;5.57;3.40;;;;;;;;;;4458603;32;20299;-55
2021/08/13 02:04:08;;;;;;;6.47;3.35;;;;;;;;;;4464099;32;20246;-55
2021/08/13 02:06:35;;;;;;;4.50;2.85;;;;;;;;;;4450815;32;20239;-55
2021/08/13 02:09:02;;;;;;;7.28;4.20;;;;;;;;;;4463567;32;20316;-55
2021/08/13 02:11:28;;;;;;;5.30;3.33;;;;;;;;;;4456657;32;20277;-55
2021/08/13 02:13:55;;;;;;;5.93;3.08;;;;;;;;;;4452367;32;20332;-56
2021/08/13 02:16:26;;;;;;;4.45;3.00;;;;;;;;;;4461277;32;20280;-56
2021/08/13 02:19:09;;;;;;;9.35;3.28;;;;;;;;;;4463026;32;20267;-55
2021/08/13 02:21:37;;;;;;;11.32;3.12;;;;;;;;;;4456710;32;20385;-55
2021/08/13 02:24:03;;;;;;;3.28;2.80;;;;;;;;;;4451226;32;20291;-55
2021/08/13 02:26:29;;;;;;;5.80;3.22;;;;;;;;;;4462121;32;20814;-57
2021/08/13 02:28:54;;;;;;;4.00;2.87;;;;;;;;;;4458438;32;20232;-57
2021/08/13 02:31:20;;;;;;;8.40;3.67;;;;;;;;;;4454683;32;20279;-57
2021/08/13 02:33:45;;;;;;;5.78;3.03;;;;;;;;;;4453204;32;20277;-57
2021/08/13 02:36:14;;;;;;;4.68;3.03;;;;;;;;;;4457870;32;20288;-57
2021/08/13 02:39:01;;;;;;;5.85;4.20;;;;;;;;;;4450033;32;20767;-57
2021/08/13 02:41:30;;;;;;;5.18;3.47;;;;;;;;;;4463048;32;20216;-57
2021/08/13 02:44:03;;;;;;;6.60;3.37;;;;;;;;;;4462687;32;20228;-57
2021/08/13 02:46:36;;;;;;;6.62;3.10;;;;;;;;;;4450282;32;20337;-57
2021/08/13 02:49:04;;;;;;;3.62;3.33;;;;;;;;;;4462955;32;20622;-55
2021/08/13 02:51:32;;;;;;;6.28;3.45;;;;;;;;;;4456092;32;20301;-56
2021/08/13 02:53:58;;;;;;;5.75;3.17;;;;;;;;;;4451170;32;20239;-56
2021/08/13 02:56:27;;;;;;;7.25;2.97;;;;;;;;;;4461481;32;20313;-56
2021/08/13 02:58:58;;;;;;;3.58;2.78;;;;;;;;;;4454309;32;20391;-55
2021/08/13 03:01:26;;;;;;;7.55;3.25;;;;;;;;;;4456116;32;20267;-55
2021/08/13 03:03:53;;;;;;;3.90;3.20;;;;;;;;;;4451793;32;20594;-55
2021/08/13 03:06:23;;;;;;;11.82;3.80;;;;;;;;;;4461351;32;20312;-56
2021/08/13 03:08:50;;;;;;;6.60;3.05;;;;;;;;;;4462727;32;20256;-56
2021/08/13 03:11:17;;;;;;;5.87;2.42;;;;;;;;;;4455962;32;20231;-56
2021/08/13 03:13:44;;;;;;;7.05;2.90;;;;;;;;;;4452699;32;20232;-56
2021/08/13 03:16:11;;;;;;;5.30;2.62;;;;;;;;;;4460308;32;20656;-55
2021/08/13 03:18:39;;;;;;;6.62;3.15;;;;;;;;;;4461904;32;20249;-54
2021/08/13 03:21:05;;;;;;;5.03;2.97;;;;;;;;;;4456777;32;20287;-55
2021/08/13 03:23:31;;;;;;;7.95;3.25;;;;;;;;;;4452222;32;20224;-56
2021/08/13 03:25:56;;;;;;;4.15;2.70;;;;;;;;;;4451426;32;20356;-57
2021/08/13 03:28:22;;;;;;;5.57;3.05;;;;;;;;;;4461241;32;20304;-56
2021/08/13 03:30:47;;;;;;;4.05;2.97;;;;;;;;;;4458825;32;20692;-56
2021/08/13 03:33:14;;;;;;;4.20;2.95;;;;;;;;;;4454707;32;20377;-56
2021/08/13 03:35:41;;;;;;;6.47;3.47;;;;;;;;;;4454463;32;20323;-56
2021/08/13 03:38:07;;;;;;;6.15;3.45;;;;;;;;;;4462810;32;20287;-56
2021/08/13 03:40:33;;;;;;;3.85;2.67;;;;;;;;;;4460071;32;20458;-55
2021/08/13 03:42:58;;;;;;;6.85;3.80;;;;;;;;;;4452842;32;20283;-55
2021/08/13 03:45:24;;;;;;;5.60;2.97;;;;;;;;;;4455672;32;20347;-55
2021/08/13 03:47:49;;;;;;;5.10;3.37;;;;;;;;;;4462337;32;20328;-55
2021/08/13 03:50:15;;;;;;;4.20;3.15;;;;;;;;;;4462513;32;20283;-56
2021/08/13 03:52:40;;;;;;;4.93;3.58;;;;;;;;;;4459184;32;20299;-56
2021/08/13 03:55:07;;;;;;;5.55;3.42;;;;;;;;;;4453707;32;20251;-55
2021/08/13 03:57:32;;;;;;;4.25;3.20;;;;;;;;;;4465984;32;20287;-57
2021/08/13 03:59:58;;;;;;;8.63;3.72;;;;;;;;;;4453597;32;20224;-54
2021/08/13 04:02:23;;;;;;;4.28;2.80;;;;;;;;;;4462054;32;20351;-55
2021/08/13 04:04:48;;;;;;;5.57;3.10;;;;;;;;;;4453509;32;20625;-55
2021/08/13 04:07:14;;;;;;;8.90;4.03;;;;;;;;;;4465006;32;20259;-56
2021/08/13 04:09:39;;;;;;;7.75;3.30;;;;;;;;;;4455209;32;20380;-56
2021/08/13 04:12:05;;;;;;;5.32;3.55;;;;;;;;;;4462509;32;20679;-56
2021/08/13 04:14:31;;;;;;;8.35;3.00;;;;;;;;;;4463299;32;20664;-55
2021/08/13 04:16:57;;;;;;;8.32;4.10;;;;;;;;;;4454661;32;20287;-56
2021/08/13 04:19:22;;;;;;;6.78;3.78;;;;;;;;;;4465264;32;20655;-55
2021/08/13 04:21:48;;;;;;;9.27;3.70;;;;;;;;;;4464375;32;20639;-54
2021/08/13 04:24:13;;;;;;;3.90;2.67;;;;;;;;;;4464597;32;20294;-56
2021/08/13 04:26:38;;;;;;;4.53;3.20;;;;;;;;;;4450398;32;20296;-54
2021/08/13 04:29:04;;;;;;;6.70;3.45;;;;;;;;;;4449840;32;20279;-55
2021/08/13 04:31:29;;;;;;;12.82;4.55;;;;;;;;;;4457010;32;20340;-55
2021/08/13 04:33:55;;;;;;;6.18;3.92;;;;;;;;;;4465267;32;20235;-55
2021/08/13 04:36:20;;;;;;;9.52;4.35;;;;;;;;;;4451384;32;20272;-55
2021/08/13 04:38:46;;;;;;;10.80;3.87;;;;;;;;;;4452782;32;20290;-56
2021/08/13 04:41:11;;;;;;;6.20;3.58;;;;;;;;;;4464828;32;20274;-56
2021/08/13 04:43:37;;;;;;;8.27;4.05;;;;;;;;;;4457970;32;20330;-56
2021/08/13 04:46:03;;;;;;;8.10;3.75;;;;;;;;;;4453219;32;20272;-55
2021/08/13 04:48:28;;;;;;;9.73;4.07;;;;;;;;;;4464178;32;20335;-55
2021/08/13 04:50:54;;;;;;;7.10;3.85;;;;;;;;;;4459629;32;20488;-57
2021/08/13 04:53:19;;;;;;;6.03;3.83;;;;;;;;;;4454593;32;20221;-55
2021/08/13 04:55:45;;;;;;;6.55;4.05;;;;;;;;;;4459961;32;20271;-57
2021/08/13 04:58:10;;;;;;;7.25;3.72;;;;;;;;;;4455574;32;20225;-55
2021/08/13 05:00:36;;;;;;;6.60;4.20;;;;;;;;;;4461981;32;20313;-55
2021/08/13 05:03:07;;;;;;;7.82;3.92;;;;;;;;;;4454615;32;20319;-55
2021/08/13 05:05:33;;;;;;;8.48;4.05;;;;;;;;;;4458319;32;20881;-55
2021/08/13 05:07:58;;;;;;;8.32;4.75;;;;;;;;;;4462925;32;20283;-55
2021/08/13 05:10:24;;;;;;;11.80;4.55;;;;;;;;;;4451938;32;20291;-55
2021/08/13 05:12:50;;;;;;;15.20;4.25;;;;;;;;;;4464125;32;20391;-56
2021/08/13 05:15:16;;;;;;;4.97;3.60;;;;;;;;;;4457381;32;20281;-56
2021/08/13 05:17:42;;;;;;;8.30;4.30;;;;;;;;;;4458691;32;20697;-57
2021/08/13 05:20:09;;;;;;;6.18;4.10;;;;;;;;;;4451706;32;20304;-56
2021/08/13 05:22:35;;;;;;;8.30;4.10;;;;;;;;;;4451722;32;20242;-57
2021/08/13 05:25:02;;;;;;;11.82;3.67;;;;;;;;;;4459750;32;20260;-56
2021/08/13 05:27:28;;;;;;;6.20;3.42;;;;;;;;;;4448202;32;20571;-56
2021/08/13 05:29:53;;;;;;;7.32;3.80;;;;;;;;;;4450639;32;20283;-57
2021/08/13 05:32:19;;;;;;;6.50;4.03;;;;;;;;;;4458178;32;20337;-56
2021/08/13 05:34:44;;;;;;;7.03;3.55;;;;;;;;;;4459351;32;20228;-56
2021/08/13 05:37:10;;;;;;;10.82;4.25;;;;;;;;;;4449430;32;20292;-56
2021/08/13 05:39:35;;;;;;;11.32;4.30;;;;;;;;;;4456638;32;20294;-56
2021/08/13 05:42:01;;;;;;;6.37;3.95;;;;;;;;;;4463925;32;20363;-54
2021/08/13 05:44:26;;;;;;;6.18;4.03;;;;;;;;;;4461767;32;20232;-54
2021/08/13 05:46:52;;;;;;;7.72;3.83;;;;;;;;;;4453246;32;20696;-54
2021/08/13 05:49:17;;;;;;;4.75;3.25;;;;;;;;;;4464293;32;20243;-55
2021/08/13 05:51:42;;;;;;;6.15;3.17;;;;;;;;;;4456897;32;20735;-55
2021/08/13 05:54:08;;;;;;;5.40;3.45;;;;;;;;;;4450217;32;20610;-55
2021/08/13 05:56:34;;;;;;;4.10;3.15;;;;;;;;;;4451201;32;20306;-57
2021/08/13 05:59:03;;;;;;;12.93;3.80;;;;;;;;;;4458308;32;20749;-55
2021/08/13 06:01:28;;;;;;;6.22;4.12;;;;;;;;;;4456770;32;20250;-55
2021/08/13 06:03:54;;;;;;;4.25;3.45;;;;;;;;;;4463540;32;20224;-56
2021/08/13 06:06:19;;;;;;;6.00;3.33;;;;;;;;;;4450685;32;20433;-55
2021/08/13 06:08:46;;;;;;;4.37;3.47;;;;;;;;;;4463747;32;20216;-56
2021/08/13 06:11:11;;;;;;;6.22;2.58;;;;;;;;;;4456890;32;20642;-56
2021/08/13 06:13:37;;;;;;;8.07;3.90;;;;;;;;;;4453072;32;20240;-56
2021/08/13 06:16:02;;;;;;;7.57;3.50;;;;;;;;;;4461101;32;20573;-55
2021/08/13 06:18:28;;;;;;;8.15;3.62;;;;;;;;;;4462131;32;20322;-56
2021/08/13 06:20:53;;;;;;;7.22;3.90;;;;;;;;;;4460695;32;20217;-56
2021/08/13 06:23:19;;;;;;;6.12;4.03;;;;;;;;;;4442057;32;20240;-56
2021/08/13 06:25:44;;;;;;;6.25;3.28;;;;;;;;;;4455888;32;20544;-56
2021/08/13 06:28:11;;;;;;;5.22;3.30;;;;;;;;;;4458359;32;20250;-56
2021/08/13 06:30:37;;;;;;;6.68;3.95;;;;;;;;;;4463557;32;20266;-55
2021/08/13 06:33:02;;;;;;;8.32;4.12;;;;;;;;;;4458545;32;20295;-57
2021/08/13 06:35:28;;;;;;;6.18;3.75;;;;;;;;;;4463016;32;20619;-57
2021/08/13 06:37:55;;;;;;;3.60;3.05;;;;;;;;;;4451027;32;20284;-56
2021/08/13 06:40:22;;;;;;;6.55;3.90;;;;;;;;;;4447492;32;20552;-56
2021/08/13 06:42:49;;;;;;;14.77;4.40;;;;;;;;;;4447643;32;20220;-56
2021/08/13 06:45:17;;;;;;;5.05;3.33;;;;;;;;;;4454448;32;20242;-56
2021/08/13 06:47:43;;;;;;;6.95;3.95;;;;;;;;;;4462456;32;20216;-57
2021/08/13 06:50:10;;;;;;;5.93;3.58;;;;;;;;;;4446336;32;20293;-57
2021/08/13 06:52:36;;;;;;;9.55;3.55;;;;;;;;;;4460014;32;20652;-56
2021/08/13 06:55:02;;;;;;;9.32;3.85;;;;;;;;;;4452999;32;20279;-56
2021/08/13 06:57:28;;;;;;;5.70;3.33;;;;;;;;;;4461232;32;20290;-57
2021/08/13 06:59:53;;;;;;;7.07;3.67;;;;;;;;;;4459059;32;20616;-58
2021/08/13 07:02:20;;;;;;;8.93;3.97;;;;;;;;;;4462778;32;20325;-58
2021/08/13 07:04:46;;;;;;;7.30;4.18;;;;;;;;;;4459340;32;20304;-56
2021/08/13 07:07:13;;;;;;;7.62;3.78;;;;;;;;;;4452470;32;20734;-56
2021/08/13 07:09:39;;;;;;;7.85;3.85;;;;;;;;;;4453015;32;20282;-56
2021/08/13 07:12:05;;;;;;;6.60;3.15;;;;;;;;;;4459356;32;20291;-57
2021/08/13 07:14:30;;;;;;;7.03;3.40;;;;;;;;;;4461586;32;20360;-56
2021/08/13 07:16:56;;;;;;;4.95;2.90;;;;;;;;;;4461914;32;20287;-56
2021/08/13 07:19:21;;;;;;;5.75;3.12;;;;;;;;;;4462557;32;20255;-56
2021/08/13 07:21:47;;;;;;;10.02;3.87;;;;;;;;;;4455759;32;20248;-56
2021/08/13 07:24:12;;;;;;;18.02;4.32;;;;;;;;;;4462393;32;20283;-56
2021/08/13 07:26:38;;;;;;;7.40;3.58;;;;;;;;;;4459834;32;20279;-56
2021/08/13 07:29:03;;;;;;;7.20;3.60;;;;;;;;;;4462382;32;20254;-56
2021/08/13 07:31:29;;;;;;;4.62;3.08;;;;;;;;;;4444744;32;20304;-56
2021/08/13 07:33:54;;;;;;;8.50;3.53;;;;;;;;;;4447437;32;20272;-56
2021/08/13 07:36:25;;;;;;;10.70;3.75;;;;;;;;;;4447233;32;20263;-56
2021/08/13 07:38:51;;;;;;;7.53;3.08;;;;;;;;;;4462885;32;20387;-56
2021/08/13 07:41:16;;;;;;;5.18;2.95;;;;;;;;;;4462866;32;20648;-56
2021/08/13 07:43:42;;;;;;;4.60;3.03;;;;;;;;;;4463073;32;20239;-56
2021/08/13 07:46:09;;;;;;;7.00;3.08;;;;;;;;;;4463543;32;20309;-56
2021/08/13 07:48:34;;;;;;;5.45;3.35;;;;;;;;;;4461962;32;20657;-56
2021/08/13 07:50:59;;;;;;;4.37;2.92;;;;;;;;;;4462611;32;20299;-56
2021/08/13 07:53:25;;;;;;;3.20;2.90;;;;;;;;;;4454835;32;20274;-56
2021/08/13 07:55:50;;;;;;;5.03;2.70;;;;;;;;;;4462056;32;20283;-56
2021/08/13 07:58:16;;;;;;;7.93;3.53;;;;;;;;;;4457888;32;20212;-57
2021/08/13 08:00:41;;;;;;;4.28;3.05;;;;;;;;;;4463109;32;20276;-56
2021/08/13 08:03:07;;;;;;;6.50;3.35;;;;;;;;;;4461998;32;20331;-56
2021/08/13 08:05:33;;;;;;;6.07;3.45;;;;;;;;;;4462125;32;20632;-57
2021/08/13 08:07:59;;;;;;;8.68;3.25;;;;;;;;;;4460995;32;20331;-57
2021/08/13 08:10:24;;;;;;;5.82;3.67;;;;;;;;;;4462561;32;20283;-57
2021/08/13 08:12:50;;;;;;;4.45;2.67;;;;;;;;;;4462199;32;20329;-57
2021/08/13 08:15:15;;;;;;;5.28;2.87;;;;;;;;;;4462118;32;20372;-57
2021/08/13 08:17:41;;;;;;;4.60;2.92;;;;;;;;;;4459480;32;20337;-57
2021/08/13 08:20:08;;;;;;;4.37;2.50;;;;;;;;;;4445726;32;20240;-57
2021/08/13 08:22:34;;;;;;;5.18;2.72;;;;;;;;;;4453472;32;20232;-56
2021/08/13 08:24:59;;;;;;;5.65;2.97;;;;;;;;;;4458032;32;20384;-57
2021/08/13 08:27:25;;;;;;;4.25;3.03;;;;;;;;;;4456677;32;20703;-57
2021/08/13 08:29:50;;;;;;;4.55;2.85;;;;;;;;;;4460860;32;20538;-57
2021/08/13 08:32:16;;;;;;;3.72;2.53;;;;;;;;;;4460155;32;20275;-57
2021/08/13 08:34:41;;;;;;;4.97;2.90;;;;;;;;;;4455300;32;20419;-57
2021/08/13 08:37:10;;;;;;;3.92;2.60;;;;;;;;;;4457513;32;20395;-57
2021/08/13 08:39:36;;;;;;;4.78;2.70;;;;;;;;;;4460775;32;20707;-57
2021/08/13 08:42:02;;;;;;;4.50;2.90;;;;;;;;;;4447877;32;20254;-57
2021/08/13 08:44:27;;;;;;;5.62;2.97;;;;;;;;;;4456115;32;20529;-56
2021/08/13 08:46:53;;;;;;;3.12;2.42;;;;;;;;;;4459774;32;20729;-56
2021/08/13 08:49:20;;;;;;;9.48;3.00;;;;;;;;;;4452455;32;20230;-56
2021/08/13 08:51:46;;;;;;;3.65;2.58;;;;;;;;;;4463923;32;20683;-56
2021/08/13 08:54:13;;;;;;;4.75;3.15;;;;;;;;;;4453645;32;20727;-56
2021/08/13 08:56:38;;;;;;;5.20;2.70;;;;;;;;;;4455028;32;20735;-58
2021/08/13 08:59:04;;;;;;;5.12;2.62;;;;;;;;;;4455780;32;20417;-57
2021/08/13 09:01:30;;;;;;;5.00;2.85;;;;;;;;;;4458517;32;20728;-58
2021/08/13 09:03:56;;;;;;;3.72;2.35;;;;;;;;;;4462662;32;20731;-57
2021/08/13 09:06:22;;;;;;;4.80;3.15;;;;;;;;;;4463285;32;20295;-58
2021/08/13 09:08:47;;;;;;;9.50;2.75;;;;;;;;;;4462949;32;20267;-57
2021/08/13 09:11:14;;;;;;;4.45;2.35;;;;;;;;;;4455555;32;20396;-57
2021/08/13 09:13:40;;;;;;;2.60;2.25;;;;;;;;;;4461453;32;20405;-57
2021/08/13 09:16:13;;;;;;;4.80;2.90;;;;;;;;;;4449915;32;20288;-57
2021/08/13 09:18:39;;;;;;;4.82;2.67;;;;;;;;;;4462362;32;20324;-56
2021/08/13 09:21:05;;;;;;;4.45;2.55;;;;;;;;;;4454381;32;20495;-56
2021/08/13 09:23:34;;;;;;;4.28;2.60;;;;;;;;;;4461573;32;20224;-57
2021/08/13 09:26:11;;;;;;;5.70;2.80;;;;;;;;;;4459365;32;20811;-57
2021/08/13 09:29:03;;;;;;;3.60;2.47;;;;;;;;;;4462899;32;20648;-57
2021/08/13 09:31:34;;;;;;;6.97;2.67;;;;;;;;;;4453945;32;20220;-56
2021/08/13 09:34:14;;;;;;;3.62;2.75;;;;;;;;;;4457715;32;20377;-56
2021/08/13 09:36:49;;;;;;;4.20;2.83;;;;;;;;;;4462695;32;20346;-57
2021/08/13 09:39:15;;;;;;;9.98;2.53;;;;;;;;;;4463180;32;20737;-56
2021/08/13 09:41:52;;;;;;;4.45;2.45;;;;;;;;;;4461888;32;20271;-57
2021/08/13 09:44:31;;;;;;;2.78;2.10;;;;;;;;;;4451084;32;20470;-57
2021/08/13 09:46:59;;;;;;;5.32;2.30;;;;;;;;;;4453973;32;20250;-56
2021/08/13 09:49:25;;;;;;;3.97;2.83;;;;;;;;;;4462154;32;20644;-57
2021/08/13 09:51:51;;;;;;;5.70;3.10;;;;;;;;;;4460462;32;20343;-57
2021/08/13 09:54:17;;;;;;;4.53;2.72;;;;;;;;;;4456172;32;20239;-57
2021/08/13 09:56:43;;;;;;;4.05;2.67;;;;;;;;;;4462186;32;20758;-57
2021/08/13 09:59:20;;;;;;;4.45;2.87;;;;;;;;;;4462668;32;20275;-56
2021/08/13 10:01:46;;;;;;;3.05;2.08;;;;;;;;;;4460817;32;20302;-56
2021/08/13 10:04:13;;;;;;;3.70;2.55;;;;;;;;;;4450079;32;20695;-57
2021/08/13 10:06:40;;;;;;;5.12;2.65;;;;;;;;;;4461641;32;20311;-57
2021/08/13 10:09:20;;;;;;;3.60;2.75;;;;;;;;;;4462321;32;20328;-56
2021/08/13 10:11:58;;;;;;;4.62;2.75;;;;;;;;;;4453094;32;20336;-57
2021/08/13 10:14:29;;;;;;;6.65;2.55;;;;;;;;;;4455296;32;20270;-57
2021/08/13 10:17:10;;;;;;;6.87;2.90;;;;;;;;;;4456527;32;20243;-57
2021/08/13 10:19:38;;;;;;;4.43;2.58;;;;;;;;;;4461146;32;20224;-57
2021/08/13 10:22:04;;;;;;;4.30;2.55;;;;;;;;;;4448631;32;20216;-56
2021/08/13 10:24:29;;;;;;;4.10;2.58;;;;;;;;;;4455037;32;20282;-56
2021/08/13 10:26:56;;;;;;;3.03;2.45;;;;;;;;;;4451436;32;20355;-57
2021/08/13 10:29:22;;;;;;;3.58;2.55;;;;;;;;;;4461724;32;20308;-57
2021/08/13 10:31:47;;;;;;;3.12;2.15;;;;;;;;;;4452572;32;20683;-57
2021/08/13 10:34:13;;;;;;;8.25;3.47;;;;;;;;;;4458864;32;20322;-57
2021/08/13 10:36:42;;;;;;;2.90;2.25;;;;;;;;;;4450833;32;20299;-57
2021/08/13 10:39:08;;;;;;;8.32;2.90;;;;;;;;;;4462553;32;20271;-57
2021/08/13 10:41:38;;;;;;;3.70;2.67;;;;;;;;;;4451763;32;20231;-57
2021/08/13 10:44:08;;;;;;;4.28;2.70;;;;;;;;;;4452876;32;20308;-57
2021/08/13 10:46:35;;;;;;;6.07;2.87;;;;;;;;;;4462317;32;20220;-57
2021/08/13 10:49:01;;;;;;;4.62;3.20;;;;;;;;;;4462699;32;20702;-57
2021/08/13 10:51:33;;;;;;;5.25;3.75;;;;;;;;;;4460627;32;20283;-58
2021/08/13 10:54:10;;;;;;;5.20;3.15;;;;;;;;;;4460716;32;20293;-57
2021/08/13 10:56:38;;;;;;;3.20;2.62;;;;;;;;;;4459621;32;20904;-57
2021/08/13 10:59:04;;;;;;;3.85;3.08;;;;;;;;;;4456387;32;20572;-57
2021/08/13 11:01:30;;;;;;;6.53;2.70;;;;;;;;;;4460505;32;20337;-58
2021/08/13 11:03:55;;;;;;;5.95;3.70;;;;;;;;;;4454598;32;20438;-57
2021/08/13 11:06:53;;;;;;;4.03;2.75;;;;;;;;;;4459617;32;20778;-57
2021/08/13 11:09:21;;;;;;;3.70;2.60;;;;;;;;;;4412505;32;20316;-57
2021/08/13 11:11:56;;;;;;;4.30;2.53;;;;;;;;;;4458033;32;20236;-57
2021/08/13 11:14:25;;;;;;;4.03;3.05;;;;;;;;;;4456252;32;20220;-57
2021/08/13 11:16:51;;;;;;;3.97;2.85;;;;;;;;;;4451607;32;20600;-57
2021/08/13 11:19:19;;;;;;;5.57;3.05;;;;;;;;;;4461252;32;20264;-57
2021/08/13 11:21:49;;;;;;;5.95;3.53;;;;;;;;;;4450694;32;20244;-57
2021/08/13 11:24:15;;;;;;;5.53;3.20;;;;;;;;;;4460819;32;20232;-57
2021/08/13 11:26:53;;;;;;;5.07;2.92;;;;;;;;;;4461572;32;20284;-56
2021/08/13 11:29:28;;;;;;;4.57;3.03;;;;;;;;;;4462027;32;20262;-57
2021/08/13 11:31:54;;;;;;;5.22;3.00;;;;;;;;;;4456896;32;20310;-57
2021/08/13 11:35:03;;;;;;;5.80;2.78;;;;;;;;;;4456473;32;20355;-57
2021/08/13 11:37:31;;;;;;;4.68;2.85;;;;;;;;;;4397287;32;20310;-57
2021/08/13 11:39:56;;;;;;;3.75;2.47;;;;;;;;;;4396023;32;20858;-58
2021/08/13 11:42:23;;;;;;;2.85;2.55;;;;;;;;;;4421581;32;20318;-56
2021/08/13 11:44:50;;;;;;;4.68;3.00;;;;;;;;;;4460656;32;20236;-56
2021/08/13 11:47:19;;;;;;;4.07;2.70;;;;;;;;;;4459915;32;20623;-56
2021/08/13 11:49:48;;;;;;;3.33;2.37;;;;;;;;;;4459190;32;20228;-56
2021/08/13 11:52:21;;;;;;;3.10;2.20;;;;;;;;;;4446410;32;20357;-58
2021/08/13 11:54:47;;;;;;;6.30;2.80;;;;;;;;;;4458458;32;20219;-57
2021/08/13 11:57:17;;;;;;;4.72;2.35;;;;;;;;;;4458377;32;20291;-58
2021/08/13 11:59:44;;;;;;;3.10;2.25;;;;;;;;;;4461949;32;20228;-56
2021/08/13 12:02:10;;;;;;;5.45;2.80;;;;;;;;;;4455563;32;20788;-57
2021/08/13 12:04:36;;;;;;;3.05;2.65;;;;;;;;;;4447169;32;20224;-56
2021/08/13 12:07:08;;;;;;;3.50;2.33;;;;;;;;;;4454342;32;20355;-58
2021/08/13 12:09:43;;;;;;;3.25;2.10;;;;;;;;;;4447397;32;20283;-58
2021/08/13 12:12:14;;;;;;;4.70;3.08;;;;;;;;;;4460539;32;20261;-58
2021/08/13 12:14:48;;;;;;;3.65;2.85;;;;;;;;;;4459392;32;20294;-57
2021/08/13 12:17:13;;;;;;;6.28;2.92;;;;;;;;;;4453681;32;20675;-57
2021/08/13 12:19:39;;;;;;;4.82;2.97;;;;;;;;;;4466181;32;20773;-57
2021/08/13 12:22:07;;;;;;;4.70;2.50;;;;;;;;;;4464334;32;20678;-56
2021/08/13 12:24:36;;;;;;;5.30;2.80;;;;;;;;;;4465742;32;20236;-57
2021/08/13 12:27:07;;;;;;;6.97;3.15;;;;;;;;;;4460159;32;20483;-57
2021/08/13 12:29:35;;;;;;;9.70;2.62;;;;;;;;;;4449963;32;20839;-57
2021/08/13 12:32:03;;;;;;;8.32;3.00;;;;;;;;;;4453512;32;20351;-57
2021/08/13 12:34:31;;;;;;;3.33;2.50;;;;;;;;;;4463016;32;20223;-57
2021/08/13 12:37:01;;;;;;;4.37;3.65;;;;;;;;;;4464810;32;20240;-57
2021/08/13 12:39:28;;;;;;;5.78;2.75;;;;;;;;;;4463682;32;20240;-57
2021/08/13 12:41:54;;;;;;;3.53;2.58;;;;;;;;;;4465140;32;20280;-57
2021/08/13 12:44:19;;;;;;;4.30;3.03;;;;;;;;;;4465139;32;20246;-57
2021/08/13 12:46:45;;;;;;;3.00;2.33;;;;;;;;;;4464632;32;20295;-56
2021/08/13 12:49:13;;;;;;;10.50;2.53;;;;;;;;;;4465270;32;20266;-57
2021/08/13 12:51:38;;;;;;;5.95;2.85;;;;;;;;;;4464729;32;20242;-57
2021/08/13 12:54:04;;;;;;;6.18;2.80;;;;;;;;;;4464628;32;20219;-57
2021/08/13 12:56:29;;;;;;;3.05;2.47;;;;;;;;;;4463741;32;20311;-56
2021/08/13 12:59:09;;;;;;;4.62;2.33;;;;;;;;;;4464429;32;20212;-57
2021/08/13 13:01:34;;;;;;;3.28;2.45;;;;;;;;;;4462824;32;20691;-56
2021/08/13 13:04:39;;;;;;;5.32;2.92;;;;;;;;;;4452232;32;20239;-57
2021/08/13 13:07:07;;;;;;;5.53;2.97;;;;;;;;;;4440530;32;20824;-56
2021/08/13 13:09:34;;;;;;;4.30;3.37;;;;;;;;;;4464128;32;20259;-56
2021/08/13 13:12:13;;;;;;;3.53;2.72;;;;;;;;;;4464257;32;20683;-57
2021/08/13 13:14:38;;;;;;;9.43;2.90;;;;;;;;;;4463964;32;20227;-57
2021/08/13 13:17:06;;;;;;;5.12;2.42;;;;;;;;;;4454072;32;20355;-58
2021/08/13 13:19:31;;;;;;;5.22;2.97;;;;;;;;;;4464149;32;20240;-58
2021/08/13 13:22:17;;;;;;;4.00;2.30;;;;;;;;;;4464410;32;20290;-57
2021/08/13 13:24:43;;;;;;;4.87;2.97;;;;;;;;;;4464674;32;20224;-57
2021/08/13 13:27:08;;;;;;;3.85;2.60;;;;;;;;;;4451673;32;20318;-57
2021/08/13 13:29:39;;;;;;;4.40;2.92;;;;;;;;;;4459049;32;20292;-58
2021/08/13 13:32:20;;;;;;;4.62;3.10;;;;;;;;;;4455119;32;20246;-57
2021/08/13 13:34:59;;;;;;;4.65;2.60;;;;;;;;;;4458100;32;20270;-57
2021/08/13 13:37:26;;;;;;;6.68;3.30;;;;;;;;;;4457018;32;20216;-57
2021/08/13 13:39:52;;;;;;;4.45;2.62;;;;;;;;;;4460235;32;20251;-57
2021/08/13 13:42:25;;;;;;;4.32;2.95;;;;;;;;;;4455370;32;20314;-58
2021/08/13 13:44:51;;;;;;;5.15;3.17;;;;;;;;;;4456473;32;20215;-57
2021/08/13 13:47:16;;;;;;;5.35;2.92;;;;;;;;;;4451299;32;20378;-57
2021/08/13 13:49:43;;;;;;;4.65;2.75;;;;;;;;;;4460421;32;20213;-57
2021/08/13 13:52:08;;;;;;;3.28;2.33;;;;;;;;;;4454065;32;20382;-57
2021/08/13 13:54:34;;;;;;;2.92;2.25;;;;;;;;;;4455606;32;20278;-57
2021/08/13 13:56:59;;;;;;;4.75;2.47;;;;;;;;;;4459320;32;20367;-56
2021/08/13 13:59:25;;;;;;;5.03;3.15;;;;;;;;;;4458717;32;20608;-57
2021/08/13 14:01:50;;;;;;;6.12;3.70;;;;;;;;;;4452354;32;20278;-57
2021/08/13 14:04:16;;;;;;;5.47;3.00;;;;;;;;;;4457591;32;20371;-57
2021/08/13 14:06:41;;;;;;;4.70;2.67;;;;;;;;;;4449372;32;20653;-57
2021/08/13 14:09:07;;;;;;;4.07;2.65;;;;;;;;;;4459220;32;20224;-57
2021/08/13 14:11:32;;;;;;;4.43;3.17;;;;;;;;;;4453748;32;20345;-57
2021/08/13 14:14:00;;;;;;;7.62;2.80;;;;;;;;;;4459164;32;20227;-57
2021/08/13 14:16:26;;;;;;;4.57;2.67;;;;;;;;;;4455675;32;20240;-56
2021/08/13 14:18:51;;;;;;;3.80;2.72;;;;;;;;;;4463275;32;20682;-57
2021/08/13 14:21:17;;;;;;;3.00;2.55;;;;;;;;;;4450786;32;20239;-57
2021/08/13 14:23:42;;;;;;;4.32;3.22;;;;;;;;;;4462949;32;20242;-57
2021/08/13 14:26:08;;;;;;;6.20;3.00;;;;;;;;;;4458331;32;20314;-57
2021/08/13 14:28:33;;;;;;;8.27;2.95;;;;;;;;;;4461250;32;20357;-57
2021/08/13 14:31:01;;;;;;;3.53;2.87;;;;;;;;;;4453685;32;20303;-59
2021/08/13 14:33:27;;;;;;;5.07;3.25;;;;;;;;;;4462082;32;20308;-57
2021/08/13 14:35:52;;;;;;;3.90;3.40;;;;;;;;;;4451353;32;20303;-57
2021/08/13 14:38:18;;;;;;;10.38;2.95;;;;;;;;;;4463025;32;20413;-57
2021/08/13 14:40:44;;;;;;;4.28;3.20;;;;;;;;;;4462966;32;20291;-57
2021/08/13 14:43:09;;;;;;;8.35;2.75;;;;;;;;;;4463025;32;20676;-57
2021/08/13 14:45:35;;;;;;;4.37;2.80;;;;;;;;;;4461587;32;20360;-57